sensor_id;sensor_type;location;lat;lon;timestamp;temperature;humidity
12043;DHT22;6082;49.306;12.862;2022-08-19T00:00:11;22.60;99.90
12043;DHT22;6082;49.306;12.862;2022-08-19T00:02:39;22.60;99.90
12043;DHT22;6082;49.306;12.862;2022-08-19T00:05:06;22.60;99.90
12043;DHT22;6082;49.306;12.862;2022-08-19T00:07:32;22.60;99.90
12043;DHT22;6082;49.306;12.862;2022-08-19T00:09:57;22.60;99.90
12043;DHT22;6082;49.306;12.862;2022-08-19T00:12:23;22.60;99.90
12043;DHT22;6082;49.306;12.862;2022-08-19T00:14:49;22.60;99.90
12043;DHT22;6082;49.306;12.862;2022-08-19T00:17:15;22.60;99.90
12043;DHT22;6082;49.306;12.862;2022-08-19T00:19:40;22.50;99.90
12043;DHT22;6082;49.306;12.862;2022-08-19T00:22:07;22.50;99.90
12043;DHT22;6082;49.306;12.862;2022-08-19T00:24:34;22.50;99.90
12043;DHT22;6082;49.306;12.862;2022-08-19T00:27:00;22.40;99.90
12043;DHT22;6082;49.306;12.862;2022-08-19T00:29:27;22.40;99.90
12043;DHT22;6082;49.306;12.862;2022-08-19T00:31:54;22.40;99.90
12043;DHT22;6082;49.306;12.862;2022-08-19T00:34:22;22.40;99.90
12043;DHT22;6082;49.306;12.862;2022-08-19T00:36:49;22.40;99.90
12043;DHT22;6082;49.306;12.862;2022-08-19T00:39:16;22.40;99.90
12043;DHT22;6082;49.306;12.862;2022-08-19T00:41:43;22.40;99.90
12043;DHT22;6082;49.306;12.862;2022-08-19T00:44:14;22.40;99.90
12043;DHT22;6082;49.306;12.862;2022-08-19T00:46:42;22.40;99.90
12043;DHT22;6082;49.306;12.862;2022-08-19T00:49:16;22.30;99.90
12043;DHT22;6082;49.306;12.862;2022-08-19T00:51:45;22.30;99.90
12043;DHT22;6082;49.306;12.862;2022-08-19T00:54:11;22.30;99.90
12043;DHT22;6082;49.306;12.862;2022-08-19T00:56:38;22.20;99.90
12043;DHT22;6082;49.306;12.862;2022-08-19T00:59:05;22.10;99.90
12043;DHT22;6082;49.306;12.862;2022-08-19T01:01:36;22.20;99.90
12043;DHT22;6082;49.306;12.862;2022-08-19T01:04:05;22.10;99.90
12043;DHT22;6082;49.306;12.862;2022-08-19T01:06:31;22.10;99.90
12043;DHT22;6082;49.306;12.862;2022-08-19T01:08:59;22.10;99.90
12043;DHT22;6082;49.306;12.862;2022-08-19T01:11:28;22.10;99.90
12043;DHT22;6082;49.306;12.862;2022-08-19T01:13:55;22.20;99.90
12043;DHT22;6082;49.306;12.862;2022-08-19T01:16:24;22.10;99.90
12043;DHT22;6082;49.306;12.862;2022-08-19T01:18:50;22.10;99.90
12043;DHT22;6082;49.306;12.862;2022-08-19T01:23:48;22.00;99.90
12043;DHT22;6082;49.306;12.862;2022-08-19T01:26:17;22.00;99.90
12043;DHT22;6082;49.306;12.862;2022-08-19T01:28:45;22.00;99.90
12043;DHT22;6082;49.306;12.862;2022-08-19T01:31:19;22.00;99.90
12043;DHT22;6082;49.306;12.862;2022-08-19T01:33:46;22.10;99.90
12043;DHT22;6082;49.306;12.862;2022-08-19T01:36:27;22.10;99.90
12043;DHT22;6082;49.306;12.862;2022-08-19T01:38:54;22.00;99.90
12043;DHT22;6082;49.306;12.862;2022-08-19T01:41:20;22.00;99.90
12043;DHT22;6082;49.306;12.862;2022-08-19T01:43:50;22.00;99.90
12043;DHT22;6082;49.306;12.862;2022-08-19T01:46:16;22.00;99.90
12043;DHT22;6082;49.306;12.862;2022-08-19T01:48:43;22.00;99.90
12043;DHT22;6082;49.306;12.862;2022-08-19T01:51:10;22.00;99.90
12043;DHT22;6082;49.306;12.862;2022-08-19T01:53:37;22.00;99.90
12043;DHT22;6082;49.306;12.862;2022-08-19T01:56:04;21.90;99.90
12043;DHT22;6082;49.306;12.862;2022-08-19T01:58:35;21.90;99.90
12043;DHT22;6082;49.306;12.862;2022-08-19T02:01:03;21.80;99.90
12043;DHT22;6082;49.306;12.862;2022-08-19T02:03:29;21.80;99.90
12043;DHT22;6082;49.306;12.862;2022-08-19T02:06:00;21.80;99.90
12043;DHT22;6082;49.306;12.862;2022-08-19T02:08:29;21.80;99.90
12043;DHT22;6082;49.306;12.862;2022-08-19T02:10:55;21.70;99.90
12043;DHT22;6082;49.306;12.862;2022-08-19T02:13:22;21.80;99.90
12043;DHT22;6082;49.306;12.862;2022-08-19T02:15:48;21.70;99.90
12043;DHT22;6082;49.306;12.862;2022-08-19T02:18:19;21.70;99.90
12043;DHT22;6082;49.306;12.862;2022-08-19T02:20:46;21.70;99.90
12043;DHT22;6082;49.306;12.862;2022-08-19T02:23:16;21.60;99.90
12043;DHT22;6082;49.306;12.862;2022-08-19T02:25:45;21.60;99.90
12043;DHT22;6082;49.306;12.862;2022-08-19T02:28:11;21.60;99.90
12043;DHT22;6082;49.306;12.862;2022-08-19T02:30:37;21.60;99.90
12043;DHT22;6082;49.306;12.862;2022-08-19T02:33:04;21.60;99.90
12043;DHT22;6082;49.306;12.862;2022-08-19T02:35:30;21.60;99.90
12043;DHT22;6082;49.306;12.862;2022-08-19T02:37:56;21.60;99.90
12043;DHT22;6082;49.306;12.862;2022-08-19T02:40:47;21.60;99.90
12043;DHT22;6082;49.306;12.862;2022-08-19T02:43:15;21.60;99.90
12043;DHT22;6082;49.306;12.862;2022-08-19T02:45:41;21.50;99.90
12043;DHT22;6082;49.306;12.862;2022-08-19T02:48:09;21.50;99.90
12043;DHT22;6082;49.306;12.862;2022-08-19T02:50:39;21.50;99.90
12043;DHT22;6082;49.306;12.862;2022-08-19T02:53:05;21.50;99.90
12043;DHT22;6082;49.306;12.862;2022-08-19T02:55:32;21.50;99.90
12043;DHT22;6082;49.306;12.862;2022-08-19T02:57:59;21.50;99.90
12043;DHT22;6082;49.306;12.862;2022-08-19T03:00:26;21.50;99.90
12043;DHT22;6082;49.306;12.862;2022-08-19T03:02:52;21.50;99.90
12043;DHT22;6082;49.306;12.862;2022-08-19T03:05:18;21.50;99.90
12043;DHT22;6082;49.306;12.862;2022-08-19T03:07:44;21.50;99.90
12043;DHT22;6082;49.306;12.862;2022-08-19T03:10:12;21.50;99.90
12043;DHT22;6082;49.306;12.862;2022-08-19T03:12:38;21.50;99.90
12043;DHT22;6082;49.306;12.862;2022-08-19T03:15:06;21.50;99.90
12043;DHT22;6082;49.306;12.862;2022-08-19T03:17:33;21.50;99.90
12043;DHT22;6082;49.306;12.862;2022-08-19T03:19:59;21.50;99.90
12043;DHT22;6082;49.306;12.862;2022-08-19T03:22:25;21.50;99.90
12043;DHT22;6082;49.306;12.862;2022-08-19T03:24:51;21.50;99.90
12043;DHT22;6082;49.306;12.862;2022-08-19T03:27:17;21.50;99.90
12043;DHT22;6082;49.306;12.862;2022-08-19T03:29:43;21.50;99.90
12043;DHT22;6082;49.306;12.862;2022-08-19T03:32:10;21.60;99.90
12043;DHT22;6082;49.306;12.862;2022-08-19T03:34:37;21.60;99.90
12043;DHT22;6082;49.306;12.862;2022-08-19T03:37:07;21.60;99.90
12043;DHT22;6082;49.306;12.862;2022-08-19T03:39:33;21.60;99.90
12043;DHT22;6082;49.306;12.862;2022-08-19T03:41:59;21.60;99.90
12043;DHT22;6082;49.306;12.862;2022-08-19T03:44:28;21.60;99.90
12043;DHT22;6082;49.306;12.862;2022-08-19T03:46:56;21.60;99.90
12043;DHT22;6082;49.306;12.862;2022-08-19T03:49:24;21.60;99.90
12043;DHT22;6082;49.306;12.862;2022-08-19T03:51:51;21.50;99.90
12043;DHT22;6082;49.306;12.862;2022-08-19T03:54:20;21.60;99.90
12043;DHT22;6082;49.306;12.862;2022-08-19T03:56:49;21.60;99.90
12043;DHT22;6082;49.306;12.862;2022-08-19T03:59:28;21.60;99.90
12043;DHT22;6082;49.306;12.862;2022-08-19T04:01:56;21.60;99.90
12043;DHT22;6082;49.306;12.862;2022-08-19T04:04:23;21.60;99.90
12043;DHT22;6082;49.306;12.862;2022-08-19T04:06:49;21.60;99.90
12043;DHT22;6082;49.306;12.862;2022-08-19T04:09:17;21.60;99.90
12043;DHT22;6082;49.306;12.862;2022-08-19T04:11:46;21.60;99.90
12043;DHT22;6082;49.306;12.862;2022-08-19T04:14:16;21.60;99.90
12043;DHT22;6082;49.306;12.862;2022-08-19T04:16:43;21.60;99.90
12043;DHT22;6082;49.306;12.862;2022-08-19T04:19:12;21.60;99.90
12043;DHT22;6082;49.306;12.862;2022-08-19T04:21:38;21.60;99.90
12043;DHT22;6082;49.306;12.862;2022-08-19T04:24:05;21.60;99.90
12043;DHT22;6082;49.306;12.862;2022-08-19T04:26:33;21.60;99.90
12043;DHT22;6082;49.306;12.862;2022-08-19T04:29:01;21.60;99.90
12043;DHT22;6082;49.306;12.862;2022-08-19T04:31:29;21.60;99.90
12043;DHT22;6082;49.306;12.862;2022-08-19T04:33:57;21.60;99.90
12043;DHT22;6082;49.306;12.862;2022-08-19T04:36:29;21.60;99.90
12043;DHT22;6082;49.306;12.862;2022-08-19T04:38:57;21.50;99.90
12043;DHT22;6082;49.306;12.862;2022-08-19T04:41:24;21.50;99.90
12043;DHT22;6082;49.306;12.862;2022-08-19T04:44:13;21.50;99.90
12043;DHT22;6082;49.306;12.862;2022-08-19T04:46:39;21.50;99.90
12043;DHT22;6082;49.306;12.862;2022-08-19T04:49:06;21.40;99.90
12043;DHT22;6082;49.306;12.862;2022-08-19T04:51:34;21.40;99.90
12043;DHT22;6082;49.306;12.862;2022-08-19T04:54:01;21.40;99.90
12043;DHT22;6082;49.306;12.862;2022-08-19T04:56:28;21.30;99.90
12043;DHT22;6082;49.306;12.862;2022-08-19T04:58:56;21.30;99.90
12043;DHT22;6082;49.306;12.862;2022-08-19T05:01:27;21.30;99.90
12043;DHT22;6082;49.306;12.862;2022-08-19T05:03:54;21.30;99.90
12043;DHT22;6082;49.306;12.862;2022-08-19T05:06:21;21.30;99.90
12043;DHT22;6082;49.306;12.862;2022-08-19T05:08:47;21.30;99.90
12043;DHT22;6082;49.306;12.862;2022-08-19T05:13:42;21.40;99.90
12043;DHT22;6082;49.306;12.862;2022-08-19T05:16:10;21.40;99.90
12043;DHT22;6082;49.306;12.862;2022-08-19T05:18:36;21.40;99.90
12043;DHT22;6082;49.306;12.862;2022-08-19T05:21:21;21.40;99.90
12043;DHT22;6082;49.306;12.862;2022-08-19T05:24:07;21.40;99.90
12043;DHT22;6082;49.306;12.862;2022-08-19T05:26:35;21.40;99.90
12043;DHT22;6082;49.306;12.862;2022-08-19T05:29:02;21.40;99.90
12043;DHT22;6082;49.306;12.862;2022-08-19T05:31:28;21.50;99.90
12043;DHT22;6082;49.306;12.862;2022-08-19T05:33:58;21.50;99.90
12043;DHT22;6082;49.306;12.862;2022-08-19T05:36:28;21.50;99.90
12043;DHT22;6082;49.306;12.862;2022-08-19T05:38:58;21.50;99.90
12043;DHT22;6082;49.306;12.862;2022-08-19T05:41:23;21.50;99.90
12043;DHT22;6082;49.306;12.862;2022-08-19T05:43:55;21.60;99.90
12043;DHT22;6082;49.306;12.862;2022-08-19T05:46:22;21.60;99.90
12043;DHT22;6082;49.306;12.862;2022-08-19T05:48:48;21.60;99.90
12043;DHT22;6082;49.306;12.862;2022-08-19T05:51:15;21.60;99.90
12043;DHT22;6082;49.306;12.862;2022-08-19T05:53:42;21.60;99.90
12043;DHT22;6082;49.306;12.862;2022-08-19T05:56:13;21.50;99.90
12043;DHT22;6082;49.306;12.862;2022-08-19T05:58:44;21.50;99.90
12043;DHT22;6082;49.306;12.862;2022-08-19T06:01:17;21.50;99.90
12043;DHT22;6082;49.306;12.862;2022-08-19T06:03:44;21.50;99.90
12043;DHT22;6082;49.306;12.862;2022-08-19T06:06:12;21.50;99.90
12043;DHT22;6082;49.306;12.862;2022-08-19T06:08:39;21.50;99.90
12043;DHT22;6082;49.306;12.862;2022-08-19T06:13:45;21.60;99.90
12043;DHT22;6082;49.306;12.862;2022-08-19T06:16:14;21.60;99.90
12043;DHT22;6082;49.306;12.862;2022-08-19T06:18:51;21.60;99.90
12043;DHT22;6082;49.306;12.862;2022-08-19T06:21:22;21.60;99.90
12043;DHT22;6082;49.306;12.862;2022-08-19T06:23:49;21.60;99.90
12043;DHT22;6082;49.306;12.862;2022-08-19T06:26:16;21.60;99.90
12043;DHT22;6082;49.306;12.862;2022-08-19T06:28:42;21.60;99.90
12043;DHT22;6082;49.306;12.862;2022-08-19T06:31:18;21.60;99.90
12043;DHT22;6082;49.306;12.862;2022-08-19T06:33:46;21.70;99.90
12043;DHT22;6082;49.306;12.862;2022-08-19T06:36:24;21.70;99.90
12043;DHT22;6082;49.306;12.862;2022-08-19T06:38:55;21.70;99.90
12043;DHT22;6082;49.306;12.862;2022-08-19T06:41:25;21.80;99.90
12043;DHT22;6082;49.306;12.862;2022-08-19T06:43:52;21.80;99.90
12043;DHT22;6082;49.306;12.862;2022-08-19T06:46:18;21.80;99.90
12043;DHT22;6082;49.306;12.862;2022-08-19T06:48:46;21.80;99.90
12043;DHT22;6082;49.306;12.862;2022-08-19T06:51:14;21.90;99.90
12043;DHT22;6082;49.306;12.862;2022-08-19T06:53:41;21.90;99.90
12043;DHT22;6082;49.306;12.862;2022-08-19T06:56:13;21.90;99.90
12043;DHT22;6082;49.306;12.862;2022-08-19T06:58:38;21.90;99.90
12043;DHT22;6082;49.306;12.862;2022-08-19T07:01:05;21.90;99.90
12043;DHT22;6082;49.306;12.862;2022-08-19T07:03:33;21.90;99.90
12043;DHT22;6082;49.306;12.862;2022-08-19T07:06:19;21.90;99.90
12043;DHT22;6082;49.306;12.862;2022-08-19T07:08:47;22.00;99.90
12043;DHT22;6082;49.306;12.862;2022-08-19T07:11:16;22.00;99.90
12043;DHT22;6082;49.306;12.862;2022-08-19T07:13:43;22.00;99.90
12043;DHT22;6082;49.306;12.862;2022-08-19T07:16:13;22.00;99.90
12043;DHT22;6082;49.306;12.862;2022-08-19T07:18:40;22.10;99.90
12043;DHT22;6082;49.306;12.862;2022-08-19T07:21:32;22.10;99.90
12043;DHT22;6082;49.306;12.862;2022-08-19T07:23:59;22.10;99.90
12043;DHT22;6082;49.306;12.862;2022-08-19T07:26:31;22.10;99.90
12043;DHT22;6082;49.306;12.862;2022-08-19T07:28:58;22.20;99.90
12043;DHT22;6082;49.306;12.862;2022-08-19T07:31:26;22.20;99.90
12043;DHT22;6082;49.306;12.862;2022-08-19T07:33:54;22.30;99.90
12043;DHT22;6082;49.306;12.862;2022-08-19T07:36:27;22.30;99.90
12043;DHT22;6082;49.306;12.862;2022-08-19T07:38:58;22.40;99.90
12043;DHT22;6082;49.306;12.862;2022-08-19T07:41:27;22.50;99.90
12043;DHT22;6082;49.306;12.862;2022-08-19T07:43:54;22.50;99.90
12043;DHT22;6082;49.306;12.862;2022-08-19T07:46:20;22.50;99.90
12043;DHT22;6082;49.306;12.862;2022-08-19T07:48:48;22.50;99.90
12043;DHT22;6082;49.306;12.862;2022-08-19T07:51:18;22.60;99.90
12043;DHT22;6082;49.306;12.862;2022-08-19T07:53:44;22.60;99.90
12043;DHT22;6082;49.306;12.862;2022-08-19T07:56:11;22.70;99.90
12043;DHT22;6082;49.306;12.862;2022-08-19T07:58:40;22.50;99.90
12043;DHT22;6082;49.306;12.862;2022-08-19T08:01:10;22.70;99.90
12043;DHT22;6082;49.306;12.862;2022-08-19T08:03:36;22.80;99.90
12043;DHT22;6082;49.306;12.862;2022-08-19T08:06:22;22.80;99.90
12043;DHT22;6082;49.306;12.862;2022-08-19T08:09:08;22.80;99.90
12043;DHT22;6082;49.306;12.862;2022-08-19T08:11:43;22.80;99.90
12043;DHT22;6082;49.306;12.862;2022-08-19T08:14:33;22.80;99.90
12043;DHT22;6082;49.306;12.862;2022-08-19T08:17:01;22.80;99.90
12043;DHT22;6082;49.306;12.862;2022-08-19T08:19:28;22.80;99.90
12043;DHT22;6082;49.306;12.862;2022-08-19T08:21:55;22.80;99.90
12043;DHT22;6082;49.306;12.862;2022-08-19T08:24:21;22.80;99.90
12043;DHT22;6082;49.306;12.862;2022-08-19T08:26:48;22.80;99.90
12043;DHT22;6082;49.306;12.862;2022-08-19T08:29:14;22.80;99.90
12043;DHT22;6082;49.306;12.862;2022-08-19T08:31:42;22.80;99.90
12043;DHT22;6082;49.306;12.862;2022-08-19T08:34:10;22.90;99.90
12043;DHT22;6082;49.306;12.862;2022-08-19T08:36:44;22.90;99.90
12043;DHT22;6082;49.306;12.862;2022-08-19T08:39:12;22.90;99.90
12043;DHT22;6082;49.306;12.862;2022-08-19T08:44:39;23.00;99.90
12043;DHT22;6082;49.306;12.862;2022-08-19T08:47:13;23.00;99.90
12043;DHT22;6082;49.306;12.862;2022-08-19T08:49:59;23.00;99.90
12043;DHT22;6082;49.306;12.862;2022-08-19T08:52:33;23.00;99.90
12043;DHT22;6082;49.306;12.862;2022-08-19T08:55:08;23.10;99.90
12043;DHT22;6082;49.306;12.862;2022-08-19T09:00:27;23.30;99.90
12043;DHT22;6082;49.306;12.862;2022-08-19T09:02:54;23.40;99.90
12043;DHT22;6082;49.306;12.862;2022-08-19T09:05:21;23.50;99.90
12043;DHT22;6082;49.306;12.862;2022-08-19T09:08:01;23.60;99.90
12043;DHT22;6082;49.306;12.862;2022-08-19T09:10:38;23.60;99.90
12043;DHT22;6082;49.306;12.862;2022-08-19T09:16:17;23.70;99.90
12043;DHT22;6082;49.306;12.862;2022-08-19T09:18:48;23.70;99.90
12043;DHT22;6082;49.306;12.862;2022-08-19T09:21:17;23.70;99.90
12043;DHT22;6082;49.306;12.862;2022-08-19T09:23:44;23.70;99.90
12043;DHT22;6082;49.306;12.862;2022-08-19T09:26:14;23.70;99.90
12043;DHT22;6082;49.306;12.862;2022-08-19T09:28:41;23.70;99.90
12043;DHT22;6082;49.306;12.862;2022-08-19T09:31:11;23.70;99.90
12043;DHT22;6082;49.306;12.862;2022-08-19T09:33:37;23.60;99.90
12043;DHT22;6082;49.306;12.862;2022-08-19T09:36:09;23.50;99.90
12043;DHT22;6082;49.306;12.862;2022-08-19T09:38:36;23.40;99.90
12043;DHT22;6082;49.306;12.862;2022-08-19T09:41:07;23.20;99.90
12043;DHT22;6082;49.306;12.862;2022-08-19T09:43:34;23.20;99.90
12043;DHT22;6082;49.306;12.862;2022-08-19T09:46:03;23.10;99.90
12043;DHT22;6082;49.306;12.862;2022-08-19T09:48:38;23.00;99.90
12043;DHT22;6082;49.306;12.862;2022-08-19T09:51:12;23.00;99.90
12043;DHT22;6082;49.306;12.862;2022-08-19T09:53:41;23.00;99.90
12043;DHT22;6082;49.306;12.862;2022-08-19T09:56:07;23.00;99.90
12043;DHT22;6082;49.306;12.862;2022-08-19T09:58:33;23.00;99.90
12043;DHT22;6082;49.306;12.862;2022-08-19T10:01:00;23.10;99.90
12043;DHT22;6082;49.306;12.862;2022-08-19T10:03:28;23.10;99.90
12043;DHT22;6082;49.306;12.862;2022-08-19T10:05:55;23.10;99.90
12043;DHT22;6082;49.306;12.862;2022-08-19T10:08:28;23.20;99.90
12043;DHT22;6082;49.306;12.862;2022-08-19T10:10:55;23.20;99.90
12043;DHT22;6082;49.306;12.862;2022-08-19T10:13:24;23.20;99.90
12043;DHT22;6082;49.306;12.862;2022-08-19T10:15:52;23.20;99.90
12043;DHT22;6082;49.306;12.862;2022-08-19T10:18:20;23.10;99.90
12043;DHT22;6082;49.306;12.862;2022-08-19T10:20:47;23.20;99.90
12043;DHT22;6082;49.306;12.862;2022-08-19T10:23:14;23.30;99.90
12043;DHT22;6082;49.306;12.862;2022-08-19T10:25:41;23.30;99.90
12043;DHT22;6082;49.306;12.862;2022-08-19T10:28:11;23.30;99.90
12043;DHT22;6082;49.306;12.862;2022-08-19T10:30:40;23.30;99.90
12043;DHT22;6082;49.306;12.862;2022-08-19T10:33:06;23.30;99.90
12043;DHT22;6082;49.306;12.862;2022-08-19T10:35:32;23.30;99.90
12043;DHT22;6082;49.306;12.862;2022-08-19T10:37:58;23.30;99.90
12043;DHT22;6082;49.306;12.862;2022-08-19T10:40:25;23.40;99.90
12043;DHT22;6082;49.306;12.862;2022-08-19T10:42:51;23.40;99.90
12043;DHT22;6082;49.306;12.862;2022-08-19T10:45:17;23.30;99.90
12043;DHT22;6082;49.306;12.862;2022-08-19T10:47:43;23.40;99.90
12043;DHT22;6082;49.306;12.862;2022-08-19T10:50:09;23.40;99.90
12043;DHT22;6082;49.306;12.862;2022-08-19T10:52:53;23.40;99.90
12043;DHT22;6082;49.306;12.862;2022-08-19T10:55:22;23.40;99.90
12043;DHT22;6082;49.306;12.862;2022-08-19T10:58:15;23.60;99.90
12043;DHT22;6082;49.306;12.862;2022-08-19T11:00:42;23.30;99.90
12043;DHT22;6082;49.306;12.862;2022-08-19T11:03:11;23.20;99.90
12043;DHT22;6082;49.306;12.862;2022-08-19T11:05:37;23.10;99.90
12043;DHT22;6082;49.306;12.862;2022-08-19T11:08:04;23.10;99.90
12043;DHT22;6082;49.306;12.862;2022-08-19T11:10:30;23.10;99.90
12043;DHT22;6082;49.306;12.862;2022-08-19T11:12:56;23.10;99.90
12043;DHT22;6082;49.306;12.862;2022-08-19T11:15:22;23.10;99.90
12043;DHT22;6082;49.306;12.862;2022-08-19T11:17:48;23.10;99.90
12043;DHT22;6082;49.306;12.862;2022-08-19T11:20:15;23.10;99.90
12043;DHT22;6082;49.306;12.862;2022-08-19T11:22:41;23.10;99.90
12043;DHT22;6082;49.306;12.862;2022-08-19T11:25:08;23.10;99.90
12043;DHT22;6082;49.306;12.862;2022-08-19T11:27:38;23.10;99.90
12043;DHT22;6082;49.306;12.862;2022-08-19T11:30:05;23.10;99.90
12043;DHT22;6082;49.306;12.862;2022-08-19T11:32:32;23.20;99.90
12043;DHT22;6082;49.306;12.862;2022-08-19T11:34:59;23.30;99.90
12043;DHT22;6082;49.306;12.862;2022-08-19T11:37:24;23.50;99.90
12043;DHT22;6082;49.306;12.862;2022-08-19T11:39:50;23.70;99.90
12043;DHT22;6082;49.306;12.862;2022-08-19T11:42:17;23.80;99.90
12043;DHT22;6082;49.306;12.862;2022-08-19T11:45:02;23.90;99.90
12043;DHT22;6082;49.306;12.862;2022-08-19T11:47:29;23.80;99.90
12043;DHT22;6082;49.306;12.862;2022-08-19T11:49:56;23.90;99.90
12043;DHT22;6082;49.306;12.862;2022-08-19T11:52:21;24.00;99.90
12043;DHT22;6082;49.306;12.862;2022-08-19T11:54:47;24.10;99.90
12043;DHT22;6082;49.306;12.862;2022-08-19T11:57:13;24.10;99.90
12043;DHT22;6082;49.306;12.862;2022-08-19T11:59:42;24.20;99.90
12043;DHT22;6082;49.306;12.862;2022-08-19T12:02:12;24.30;99.90
12043;DHT22;6082;49.306;12.862;2022-08-19T12:04:39;24.30;99.90
12043;DHT22;6082;49.306;12.862;2022-08-19T12:07:05;24.30;99.90
12043;DHT22;6082;49.306;12.862;2022-08-19T12:09:30;24.30;99.90
12043;DHT22;6082;49.306;12.862;2022-08-19T12:11:57;24.30;99.90
12043;DHT22;6082;49.306;12.862;2022-08-19T12:14:23;24.40;99.90
12043;DHT22;6082;49.306;12.862;2022-08-19T12:16:49;24.60;99.90
12043;DHT22;6082;49.306;12.862;2022-08-19T12:19:15;24.60;99.90
12043;DHT22;6082;49.306;12.862;2022-08-19T12:21:44;24.70;99.90
12043;DHT22;6082;49.306;12.862;2022-08-19T12:24:09;24.90;99.90
12043;DHT22;6082;49.306;12.862;2022-08-19T12:26:35;25.00;99.90
12043;DHT22;6082;49.306;12.862;2022-08-19T12:29:02;25.20;99.90
12043;DHT22;6082;49.306;12.862;2022-08-19T12:38:35;25.20;99.90
12043;DHT22;6082;49.306;12.862;2022-08-19T12:41:02;25.40;99.90
12043;DHT22;6082;49.306;12.862;2022-08-19T12:43:35;25.50;99.90
12043;DHT22;6082;49.306;12.862;2022-08-19T12:46:01;25.40;99.90
12043;DHT22;6082;49.306;12.862;2022-08-19T12:48:27;25.40;99.90
12043;DHT22;6082;49.306;12.862;2022-08-19T12:50:54;25.20;99.90
12043;DHT22;6082;49.306;12.862;2022-08-19T12:53:20;25.20;99.90
12043;DHT22;6082;49.306;12.862;2022-08-19T12:55:46;25.20;99.90
12043;DHT22;6082;49.306;12.862;2022-08-19T12:58:12;25.10;99.90
12043;DHT22;6082;49.306;12.862;2022-08-19T13:00:38;25.00;99.90
12043;DHT22;6082;49.306;12.862;2022-08-19T13:03:04;24.80;99.90
12043;DHT22;6082;49.306;12.862;2022-08-19T13:05:32;24.80;99.90
12043;DHT22;6082;49.306;12.862;2022-08-19T13:07:59;24.70;99.90
12043;DHT22;6082;49.306;12.862;2022-08-19T13:10:31;24.70;99.90
12043;DHT22;6082;49.306;12.862;2022-08-19T13:13:01;24.70;99.90
12043;DHT22;6082;49.306;12.862;2022-08-19T13:15:27;24.70;99.90
12043;DHT22;6082;49.306;12.862;2022-08-19T13:17:54;24.60;99.90
12043;DHT22;6082;49.306;12.862;2022-08-19T13:20:21;24.50;99.90
12043;DHT22;6082;49.306;12.862;2022-08-19T13:22:47;24.50;99.90
12043;DHT22;6082;49.306;12.862;2022-08-19T13:25:15;24.60;99.90
12043;DHT22;6082;49.306;12.862;2022-08-19T13:27:43;24.60;99.90
12043;DHT22;6082;49.306;12.862;2022-08-19T13:30:11;24.60;99.90
12043;DHT22;6082;49.306;12.862;2022-08-19T13:32:56;24.70;99.90
12043;DHT22;6082;49.306;12.862;2022-08-19T13:38:06;24.60;99.90
12043;DHT22;6082;49.306;12.862;2022-08-19T13:40:33;24.50;99.90
12043;DHT22;6082;49.306;12.862;2022-08-19T13:43:00;24.40;99.90
12043;DHT22;6082;49.306;12.862;2022-08-19T13:45:27;24.40;99.90
12043;DHT22;6082;49.306;12.862;2022-08-19T13:47:55;24.40;99.90
12043;DHT22;6082;49.306;12.862;2022-08-19T13:50:25;24.40;99.90
12043;DHT22;6082;49.306;12.862;2022-08-19T13:52:53;24.40;99.90
12043;DHT22;6082;49.306;12.862;2022-08-19T13:55:19;24.30;99.90
12043;DHT22;6082;49.306;12.862;2022-08-19T13:57:45;24.30;99.90
12043;DHT22;6082;49.306;12.862;2022-08-19T14:00:15;24.20;99.90
12043;DHT22;6082;49.306;12.862;2022-08-19T14:02:44;24.30;99.90
12043;DHT22;6082;49.306;12.862;2022-08-19T14:05:12;24.30;99.90
12043;DHT22;6082;49.306;12.862;2022-08-19T14:07:38;24.30;99.90
12043;DHT22;6082;49.306;12.862;2022-08-19T14:10:06;24.20;99.90
12043;DHT22;6082;49.306;12.862;2022-08-19T14:12:32;24.30;99.90
12043;DHT22;6082;49.306;12.862;2022-08-19T14:14:59;24.30;99.90
12043;DHT22;6082;49.306;12.862;2022-08-19T14:17:24;24.30;99.90
12043;DHT22;6082;49.306;12.862;2022-08-19T14:19:56;24.20;99.90
12043;DHT22;6082;49.306;12.862;2022-08-19T14:22:23;24.20;99.90
12043;DHT22;6082;49.306;12.862;2022-08-19T14:24:51;24.20;99.90
12043;DHT22;6082;49.306;12.862;2022-08-19T14:27:17;24.20;99.90
12043;DHT22;6082;49.306;12.862;2022-08-19T14:29:42;24.20;99.90
12043;DHT22;6082;49.306;12.862;2022-08-19T14:32:09;24.30;99.90
12043;DHT22;6082;49.306;12.862;2022-08-19T14:34:35;24.30;99.90
12043;DHT22;6082;49.306;12.862;2022-08-19T14:37:03;24.50;99.90
12043;DHT22;6082;49.306;12.862;2022-08-19T14:39:28;24.60;99.90
12043;DHT22;6082;49.306;12.862;2022-08-19T14:41:54;24.80;99.90
12043;DHT22;6082;49.306;12.862;2022-08-19T14:44:20;24.90;99.90
12043;DHT22;6082;49.306;12.862;2022-08-19T14:46:46;25.00;99.90
12043;DHT22;6082;49.306;12.862;2022-08-19T14:49:12;25.00;99.90
12043;DHT22;6082;49.306;12.862;2022-08-19T14:51:38;25.10;99.90
12043;DHT22;6082;49.306;12.862;2022-08-19T14:54:04;25.20;99.90
12043;DHT22;6082;49.306;12.862;2022-08-19T14:56:29;25.30;99.90
12043;DHT22;6082;49.306;12.862;2022-08-19T14:58:57;25.40;99.90
12043;DHT22;6082;49.306;12.862;2022-08-19T15:01:29;25.30;99.90
12043;DHT22;6082;49.306;12.862;2022-08-19T15:03:54;25.40;99.90
12043;DHT22;6082;49.306;12.862;2022-08-19T15:06:22;25.40;99.90
12043;DHT22;6082;49.306;12.862;2022-08-19T15:08:48;25.50;99.90
12043;DHT22;6082;49.306;12.862;2022-08-19T15:11:18;25.50;99.90
12043;DHT22;6082;49.306;12.862;2022-08-19T15:13:46;25.40;99.90
12043;DHT22;6082;49.306;12.862;2022-08-19T15:16:13;25.40;99.90
12043;DHT22;6082;49.306;12.862;2022-08-19T15:18:43;25.40;99.90
12043;DHT22;6082;49.306;12.862;2022-08-19T15:21:13;25.30;99.90
12043;DHT22;6082;49.306;12.862;2022-08-19T15:23:41;25.20;99.90
12043;DHT22;6082;49.306;12.862;2022-08-19T15:26:07;25.20;99.90
12043;DHT22;6082;49.306;12.862;2022-08-19T15:28:34;25.30;99.90
12043;DHT22;6082;49.306;12.862;2022-08-19T15:31:00;25.40;99.90
12043;DHT22;6082;49.306;12.862;2022-08-19T15:33:26;25.40;99.90
12043;DHT22;6082;49.306;12.862;2022-08-19T15:35:52;25.40;99.90
12043;DHT22;6082;49.306;12.862;2022-08-19T15:38:19;25.40;99.90
12043;DHT22;6082;49.306;12.862;2022-08-19T15:40:48;25.50;99.90
12043;DHT22;6082;49.306;12.862;2022-08-19T15:43:15;25.60;99.90
12043;DHT22;6082;49.306;12.862;2022-08-19T15:45:43;25.60;99.90
12043;DHT22;6082;49.306;12.862;2022-08-19T15:48:08;25.70;99.90
12043;DHT22;6082;49.306;12.862;2022-08-19T15:50:34;25.80;99.90
12043;DHT22;6082;49.306;12.862;2022-08-19T15:53:08;25.90;99.90
12043;DHT22;6082;49.306;12.862;2022-08-19T15:55:40;25.90;99.90
12043;DHT22;6082;49.306;12.862;2022-08-19T15:58:08;25.90;99.90
12043;DHT22;6082;49.306;12.862;2022-08-19T16:00:53;26.00;99.90
12043;DHT22;6082;49.306;12.862;2022-08-19T16:03:37;26.00;99.90